Besiktas Bosphorus — TCOG3 — position and weather

sailwx.info

Track history (hours):
 
Tides and Currents Weather Stations Pressure Air Temp Water Temp Dewpoint Dewpoint Depression Visibility Wind Speed Wind Dir Waves Ship Positions

Besiktas Bosphorus

Last reported at 2015-Mar-26 08:23 UTC. Time now 2015-Mar-27 19:11 UTC.
Position N 43°28' E 034°48'.

Length 274 m; draft 15.4 m.

Type: Ship (hazmat cat A). MMSI: 271000817.

Date/timePositionNaut miles runAvg speedWind from/ knotsBaromVisibWave heightAir tempDewpointWater temp
2015-Mar-26 08:23N 43°28' E 034°48'1112.8
2015-Mar-26 07:32N 43°33' E 035°01'4513.1
2015-Mar-26 04:04N 43°55' E 035°56'713.1
2015-Mar-26 03:33N 43°58' E 036°05'  
2015-Mar-23 03:29N 44°35' E 037°35'3 1.3
2015-Mar-23 01:27N 44°32' E 037°34'2 1.3
2015-Mar-23 00:04N 44°31' E 037°34'5 5.3
2015-Mar-22 23:04N 44°35' E 037°38'1 1.7
2015-Mar-22 22:22N 44°35' E 037°37'3 0.9
2015-Mar-22 19:09N 44°32' E 037°35'4 1.6
2015-Mar-22 16:30N 44°35' E 037°39'1 0.7
2015-Mar-22 15:32N 44°34' E 037°38'1 0.8
2015-Mar-22 14:28N 44°34' E 037°37'2 0.7
2015-Mar-22 12:19N 44°33' E 037°36'2 0.6
2015-Mar-22 09:18N 44°31' E 037°35'1 0.4
2015-Mar-22 08:04N 44°31' E 037°36'1 0.6
2015-Mar-22 06:15N 44°31' E 037°37'0 0.5
2015-Mar-22 05:22N 44°32' E 037°37'0 0.3
2015-Mar-22 04:32N 44°32' E 037°37'0 0.2
2015-Mar-22 03:25N 44°32' E 037°38'0 0.3
2015-Mar-22 02:19N 44°32' E 037°38'0 0.4
2015-Mar-22 01:07N 44°33' E 037°38'0 0.2
2015-Mar-22 00:33N 44°33' E 037°37'0 0.1
2015-Mar-21 23:26N 44°33' E 037°37'0 0.1
2015-Mar-21 22:20N 44°33' E 037°37'2 0.4
2015-Mar-21 18:20N 44°33' E 037°40'4 1.8
2015-Mar-21 16:11N 44°30' E 037°37'1 1.0
2015-Mar-21 15:30N 44°30' E 037°37'1 1.1
2015-Mar-21 14:24N 44°31' E 037°37'2 1.8
2015-Mar-21 13:21N 44°33' E 037°39'4 3.1
2015-Mar-21 12:06N 44°36' E 037°42'8 8.0
2015-Mar-21 11:07N 44°35' E 037°31'3 1.1
2015-Mar-21 08:25N 44°34' E 037°36'7 1.7
2015-Mar-21 04:33N 44°38' E 037°28'5 1.6
2015-Mar-21 01:17N 44°33' E 037°32'8 4.8
2015-Mar-20 23:30N 44°35' E 037°44'1 1.3
2015-Mar-20 22:27N 44°37' E 037°45'3 2.1
2015-Mar-20 21:15N 44°36' E 037°41'5 5.3
2015-Mar-20 20:15N 44°31' E 037°40'811.3
2015-Mar-20 19:32N 44°25' E 037°32'38612.1
2015-Mar-19 11:29N 41°30' E 029°41'1213.4
2015-Mar-19 10:33N 41°24' E 029°27'1212.5
2015-Mar-19 09:33N 41°18' E 029°12'  
Track history (hours):
 
Tides and Currents Weather Stations Pressure Air Temp Water Temp Dewpoint Dewpoint Depression Visibility Wind Speed Wind Dir Waves Ship Positions

Besiktas Bosphorus

Last reported at 2015-Mar-26 08:23 UTC. Time now 2015-Mar-27 19:11 UTC.
Position N 43°28' E 034°48'.

Length 274 m; draft 15.4 m.

Type: Ship (hazmat cat A). MMSI: 271000817.

Date/timePositionNaut miles runAvg speedWind from/ knotsBaromVisibWave heightAir tempDewpointWater temp
2015-Mar-26 08:23N 43°28' E 034°48'1112.8
2015-Mar-26 07:32N 43°33' E 035°01'4513.1
2015-Mar-26 04:04N 43°55' E 035°56'713.1
2015-Mar-26 03:33N 43°58' E 036°05'  
2015-Mar-23 03:29N 44°35' E 037°35'3 1.3
2015-Mar-23 01:27N 44°32' E 037°34'2 1.3
2015-Mar-23 00:04N 44°31' E 037°34'5 5.3
2015-Mar-22 23:04N 44°35' E 037°38'1 1.7
2015-Mar-22 22:22N 44°35' E 037°37'3 0.9
2015-Mar-22 19:09N 44°32' E 037°35'4 1.6
2015-Mar-22 16:30N 44°35' E 037°39'1 0.7
2015-Mar-22 15:32N 44°34' E 037°38'1 0.8
2015-Mar-22 14:28N 44°34' E 037°37'2 0.7
2015-Mar-22 12:19N 44°33' E 037°36'2 0.6
2015-Mar-22 09:18N 44°31' E 037°35'1 0.4
2015-Mar-22 08:04N 44°31' E 037°36'1 0.6
2015-Mar-22 06:15N 44°31' E 037°37'0 0.5
2015-Mar-22 05:22N 44°32' E 037°37'0 0.3
2015-Mar-22 04:32N 44°32' E 037°37'0 0.2
2015-Mar-22 03:25N 44°32' E 037°38'0 0.3
2015-Mar-22 02:19N 44°32' E 037°38'0 0.4
2015-Mar-22 01:07N 44°33' E 037°38'0 0.2
2015-Mar-22 00:33N 44°33' E 037°37'0 0.1
2015-Mar-21 23:26N 44°33' E 037°37'0 0.1
2015-Mar-21 22:20N 44°33' E 037°37'2 0.4
2015-Mar-21 18:20N 44°33' E 037°40'4 1.8
2015-Mar-21 16:11N 44°30' E 037°37'1 1.0
2015-Mar-21 15:30N 44°30' E 037°37'1 1.1
2015-Mar-21 14:24N 44°31' E 037°37'2 1.8
2015-Mar-21 13:21N 44°33' E 037°39'4 3.1
2015-Mar-21 12:06N 44°36' E 037°42'8 8.0
2015-Mar-21 11:07N 44°35' E 037°31'3 1.1
2015-Mar-21 08:25N 44°34' E 037°36'7 1.7
2015-Mar-21 04:33N 44°38' E 037°28'5 1.6
2015-Mar-21 01:17N 44°33' E 037°32'8 4.8
2015-Mar-20 23:30N 44°35' E 037°44'1 1.3
2015-Mar-20 22:27N 44°37' E 037°45'3 2.1
2015-Mar-20 21:15N 44°36' E 037°41'5 5.3
2015-Mar-20 20:15N 44°31' E 037°40'811.3
2015-Mar-20 19:32N 44°25' E 037°32'38612.1
2015-Mar-19 11:29N 41°30' E 029°41'1213.4
2015-Mar-19 10:33N 41°24' E 029°27'1212.5
2015-Mar-19 09:33N 41°18' E 029°12'  

Dump ship's entire track history